sensor_id;sensor_type;location;lat;lon;timestamp;P1;durP1;ratioP1;P2;durP2;ratioP2
70800;SDS011;59616;52.170;5.386;2023-05-10T00:01:43;31.45;;;10.93;;
70800;SDS011;59616;52.170;5.386;2023-05-10T00:04:11;29.33;;;10.98;;
70800;SDS011;59616;52.170;5.386;2023-05-10T00:06:38;28.30;;;10.57;;
70800;SDS011;59616;52.170;5.386;2023-05-10T00:09:05;33.03;;;11.20;;
70800;SDS011;59616;52.170;5.386;2023-05-10T00:11:32;30.52;;;10.88;;
70800;SDS011;59616;52.170;5.386;2023-05-10T00:13:59;32.30;;;9.82;;
70800;SDS011;59616;52.170;5.386;2023-05-10T00:16:26;29.70;;;11.10;;
70800;SDS011;59616;52.170;5.386;2023-05-10T00:18:54;29.77;;;10.20;;
70800;SDS011;59616;52.170;5.386;2023-05-10T00:21:21;32.10;;;11.25;;
70800;SDS011;59616;52.170;5.386;2023-05-10T00:23:48;28.23;;;10.02;;
70800;SDS011;59616;52.170;5.386;2023-05-10T00:26:15;32.92;;;10.70;;
70800;SDS011;59616;52.170;5.386;2023-05-10T00:28:46;33.03;;;12.00;;
70800;SDS011;59616;52.170;5.386;2023-05-10T00:31:13;34.28;;;12.43;;
70800;SDS011;59616;52.170;5.386;2023-05-10T00:33:41;42.72;;;13.88;;
70800;SDS011;59616;52.170;5.386;2023-05-10T00:36:08;34.92;;;13.60;;
70800;SDS011;59616;52.170;5.386;2023-05-10T00:38:35;42.55;;;14.73;;
70800;SDS011;59616;52.170;5.386;2023-05-10T00:41:02;37.85;;;13.30;;
70800;SDS011;59616;52.170;5.386;2023-05-10T00:43:32;38.80;;;14.05;;
70800;SDS011;59616;52.170;5.386;2023-05-10T00:45:59;43.55;;;14.35;;
70800;SDS011;59616;52.170;5.386;2023-05-10T00:48:27;44.78;;;14.50;;
70800;SDS011;59616;52.170;5.386;2023-05-10T00:50:55;47.10;;;16.20;;
70800;SDS011;59616;52.170;5.386;2023-05-10T00:53:22;49.00;;;15.77;;
70800;SDS011;59616;52.170;5.386;2023-05-10T00:55:50;50.13;;;16.80;;
70800;SDS011;59616;52.170;5.386;2023-05-10T00:58:17;48.63;;;17.27;;
70800;SDS011;59616;52.170;5.386;2023-05-10T01:00:45;53.45;;;17.10;;
70800;SDS011;59616;52.170;5.386;2023-05-10T01:03:14;53.72;;;16.83;;
70800;SDS011;59616;52.170;5.386;2023-05-10T01:05:41;48.90;;;17.13;;
70800;SDS011;59616;52.170;5.386;2023-05-10T01:08:08;61.08;;;18.42;;
70800;SDS011;59616;52.170;5.386;2023-05-10T01:10:35;52.22;;;17.48;;
70800;SDS011;59616;52.170;5.386;2023-05-10T01:13:03;52.38;;;17.45;;
70800;SDS011;59616;52.170;5.386;2023-05-10T01:15:30;56.25;;;18.42;;
70800;SDS011;59616;52.170;5.386;2023-05-10T01:17:58;58.60;;;18.38;;
70800;SDS011;59616;52.170;5.386;2023-05-10T01:20:25;54.25;;;17.50;;
70800;SDS011;59616;52.170;5.386;2023-05-10T01:23:10;55.17;;;18.10;;
70800;SDS011;59616;52.170;5.386;2023-05-10T01:25:49;55.60;;;17.55;;
70800;SDS011;59616;52.170;5.386;2023-05-10T01:34:10;54.05;;;17.25;;
70800;SDS011;59616;52.170;5.386;2023-05-10T01:36:55;52.97;;;17.73;;
70800;SDS011;59616;52.170;5.386;2023-05-10T01:39:27;53.90;;;17.38;;
70800;SDS011;59616;52.170;5.386;2023-05-10T01:42:03;51.72;;;16.55;;
70800;SDS011;59616;52.170;5.386;2023-05-10T01:47:02;51.78;;;16.58;;
70800;SDS011;59616;52.170;5.386;2023-05-10T01:49:32;55.47;;;16.80;;
70800;SDS011;59616;52.170;5.386;2023-05-10T01:52:04;49.20;;;16.98;;
70800;SDS011;59616;52.170;5.386;2023-05-10T01:54:33;54.42;;;17.85;;
70800;SDS011;59616;52.170;5.386;2023-05-10T01:57:03;47.85;;;16.48;;
70800;SDS011;59616;52.170;5.386;2023-05-10T01:59:33;53.45;;;16.67;;
70800;SDS011;59616;52.170;5.386;2023-05-10T02:02:06;52.13;;;17.08;;
70800;SDS011;59616;52.170;5.386;2023-05-10T02:04:35;54.80;;;17.45;;
70800;SDS011;59616;52.170;5.386;2023-05-10T02:07:03;58.20;;;17.85;;
70800;SDS011;59616;52.170;5.386;2023-05-10T02:09:32;53.30;;;17.70;;
70800;SDS011;59616;52.170;5.386;2023-05-10T02:12:00;58.97;;;18.38;;
70800;SDS011;59616;52.170;5.386;2023-05-10T02:14:28;57.25;;;18.67;;
70800;SDS011;59616;52.170;5.386;2023-05-10T02:16:57;58.75;;;18.05;;
70800;SDS011;59616;52.170;5.386;2023-05-10T02:19:26;56.13;;;16.45;;
70800;SDS011;59616;52.170;5.386;2023-05-10T02:21:55;53.70;;;17.38;;
70800;SDS011;59616;52.170;5.386;2023-05-10T02:24:24;58.00;;;17.45;;
70800;SDS011;59616;52.170;5.386;2023-05-10T02:26:53;55.60;;;18.30;;
70800;SDS011;59616;52.170;5.386;2023-05-10T02:29:22;58.25;;;18.45;;
70800;SDS011;59616;52.170;5.386;2023-05-10T02:31:53;49.03;;;16.15;;
70800;SDS011;59616;52.170;5.386;2023-05-10T02:34:21;59.45;;;17.52;;
70800;SDS011;59616;52.170;5.386;2023-05-10T02:36:49;59.17;;;17.23;;
70800;SDS011;59616;52.170;5.386;2023-05-10T02:39:18;53.47;;;16.80;;
70800;SDS011;59616;52.170;5.386;2023-05-10T02:41:46;54.28;;;16.75;;
70800;SDS011;59616;52.170;5.386;2023-05-10T02:44:15;53.83;;;17.38;;
70800;SDS011;59616;52.170;5.386;2023-05-10T02:46:42;54.67;;;17.58;;
70800;SDS011;59616;52.170;5.386;2023-05-10T02:49:10;58.85;;;18.13;;
70800;SDS011;59616;52.170;5.386;2023-05-10T02:51:39;58.20;;;18.75;;
70800;SDS011;59616;52.170;5.386;2023-05-10T02:54:11;59.28;;;18.20;;
70800;SDS011;59616;52.170;5.386;2023-05-10T02:56:42;57.22;;;18.52;;
70800;SDS011;59616;52.170;5.386;2023-05-10T02:59:11;61.03;;;18.05;;
70800;SDS011;59616;52.170;5.386;2023-05-10T03:01:38;54.80;;;17.38;;
70800;SDS011;59616;52.170;5.386;2023-05-10T03:04:05;56.90;;;18.20;;
70800;SDS011;59616;52.170;5.386;2023-05-10T03:06:33;59.13;;;18.02;;
70800;SDS011;59616;52.170;5.386;2023-05-10T03:09:02;61.58;;;18.17;;
70800;SDS011;59616;52.170;5.386;2023-05-10T03:14:45;52.63;;;17.20;;
70800;SDS011;59616;52.170;5.386;2023-05-10T03:17:20;61.08;;;17.48;;
70800;SDS011;59616;52.170;5.386;2023-05-10T03:19:53;62.58;;;16.85;;
70800;SDS011;59616;52.170;5.386;2023-05-10T03:22:25;55.03;;;16.90;;
70800;SDS011;59616;52.170;5.386;2023-05-10T03:24:53;55.60;;;15.68;;
70800;SDS011;59616;52.170;5.386;2023-05-10T03:27:25;55.25;;;17.38;;
70800;SDS011;59616;52.170;5.386;2023-05-10T03:29:54;65.63;;;18.45;;
70800;SDS011;59616;52.170;5.386;2023-05-10T03:32:22;67.68;;;18.52;;
70800;SDS011;59616;52.170;5.386;2023-05-10T03:34:50;66.85;;;17.65;;
70800;SDS011;59616;52.170;5.386;2023-05-10T03:37:17;71.80;;;18.30;;
70800;SDS011;59616;52.170;5.386;2023-05-10T03:39:44;68.78;;;18.45;;
70800;SDS011;59616;52.170;5.386;2023-05-10T03:42:11;66.35;;;18.02;;
70800;SDS011;59616;52.170;5.386;2023-05-10T03:44:39;68.60;;;18.25;;
70800;SDS011;59616;52.170;5.386;2023-05-10T03:47:07;73.13;;;18.25;;
70800;SDS011;59616;52.170;5.386;2023-05-10T03:49:34;73.38;;;18.48;;
70800;SDS011;59616;52.170;5.386;2023-05-10T03:52:02;65.45;;;18.15;;
70800;SDS011;59616;52.170;5.386;2023-05-10T03:54:30;79.57;;;18.98;;
70800;SDS011;59616;52.170;5.386;2023-05-10T03:56:57;66.95;;;18.55;;
70800;SDS011;59616;52.170;5.386;2023-05-10T03:59:25;72.10;;;18.83;;
70800;SDS011;59616;52.170;5.386;2023-05-10T04:01:52;70.57;;;19.42;;
70800;SDS011;59616;52.170;5.386;2023-05-10T04:04:19;74.47;;;19.63;;
70800;SDS011;59616;52.170;5.386;2023-05-10T04:06:48;76.07;;;20.02;;
70800;SDS011;59616;52.170;5.386;2023-05-10T04:09:15;77.65;;;20.13;;
70800;SDS011;59616;52.170;5.386;2023-05-10T04:11:43;69.82;;;19.23;;
70800;SDS011;59616;52.170;5.386;2023-05-10T04:14:10;64.03;;;18.27;;
70800;SDS011;59616;52.170;5.386;2023-05-10T04:16:37;67.68;;;18.85;;
70800;SDS011;59616;52.170;5.386;2023-05-10T04:19:04;69.80;;;19.55;;
70800;SDS011;59616;52.170;5.386;2023-05-10T04:21:31;77.72;;;19.45;;
70800;SDS011;59616;52.170;5.386;2023-05-10T04:23:59;66.60;;;18.08;;
70800;SDS011;59616;52.170;5.386;2023-05-10T04:26:26;65.70;;;18.23;;
70800;SDS011;59616;52.170;5.386;2023-05-10T04:28:53;79.70;;;19.27;;
70800;SDS011;59616;52.170;5.386;2023-05-10T04:31:20;73.85;;;18.52;;
70800;SDS011;59616;52.170;5.386;2023-05-10T04:33:48;67.18;;;18.35;;
70800;SDS011;59616;52.170;5.386;2023-05-10T04:36:16;76.63;;;20.02;;
70800;SDS011;59616;52.170;5.386;2023-05-10T04:38:43;80.10;;;21.00;;
70800;SDS011;59616;52.170;5.386;2023-05-10T04:41:10;77.03;;;19.90;;
70800;SDS011;59616;52.170;5.386;2023-05-10T04:43:37;69.22;;;18.70;;
70800;SDS011;59616;52.170;5.386;2023-05-10T04:46:05;80.03;;;20.92;;
70800;SDS011;59616;52.170;5.386;2023-05-10T04:48:33;69.78;;;17.90;;
70800;SDS011;59616;52.170;5.386;2023-05-10T04:51:00;67.20;;;19.52;;
70800;SDS011;59616;52.170;5.386;2023-05-10T04:53:29;74.07;;;19.42;;
70800;SDS011;59616;52.170;5.386;2023-05-10T04:55:57;74.85;;;19.42;;
70800;SDS011;59616;52.170;5.386;2023-05-10T04:58:24;76.57;;;19.15;;
70800;SDS011;59616;52.170;5.386;2023-05-10T05:00:51;76.43;;;20.27;;
70800;SDS011;59616;52.170;5.386;2023-05-10T05:03:18;73.60;;;19.23;;
70800;SDS011;59616;52.170;5.386;2023-05-10T05:05:45;69.65;;;20.30;;
70800;SDS011;59616;52.170;5.386;2023-05-10T05:08:12;70.45;;;19.90;;
70800;SDS011;59616;52.170;5.386;2023-05-10T05:10:40;68.10;;;18.73;;
70800;SDS011;59616;52.170;5.386;2023-05-10T05:13:07;62.42;;;19.15;;
70800;SDS011;59616;52.170;5.386;2023-05-10T05:15:34;67.00;;;20.00;;
70800;SDS011;59616;52.170;5.386;2023-05-10T05:18:01;68.90;;;18.50;;
70800;SDS011;59616;52.170;5.386;2023-05-10T05:20:31;63.28;;;18.27;;
70800;SDS011;59616;52.170;5.386;2023-05-10T05:22:58;58.75;;;17.98;;
70800;SDS011;59616;52.170;5.386;2023-05-10T05:25:25;72.60;;;20.23;;
70800;SDS011;59616;52.170;5.386;2023-05-10T05:27:53;70.20;;;18.48;;
70800;SDS011;59616;52.170;5.386;2023-05-10T05:30:20;63.13;;;18.33;;
70800;SDS011;59616;52.170;5.386;2023-05-10T05:32:47;68.60;;;19.50;;
70800;SDS011;59616;52.170;5.386;2023-05-10T05:35:14;78.60;;;19.92;;
70800;SDS011;59616;52.170;5.386;2023-05-10T05:37:42;73.45;;;18.50;;
70800;SDS011;59616;52.170;5.386;2023-05-10T05:40:12;63.38;;;19.25;;
70800;SDS011;59616;52.170;5.386;2023-05-10T05:42:39;62.95;;;17.50;;
70800;SDS011;59616;52.170;5.386;2023-05-10T05:45:06;72.85;;;20.92;;
70800;SDS011;59616;52.170;5.386;2023-05-10T05:47:34;65.25;;;18.40;;
70800;SDS011;59616;52.170;5.386;2023-05-10T05:50:02;58.67;;;17.75;;
70800;SDS011;59616;52.170;5.386;2023-05-10T05:52:29;60.35;;;18.48;;
70800;SDS011;59616;52.170;5.386;2023-05-10T05:54:57;55.95;;;18.50;;
70800;SDS011;59616;52.170;5.386;2023-05-10T05:57:24;51.67;;;16.77;;
70800;SDS011;59616;52.170;5.386;2023-05-10T05:59:52;60.30;;;17.85;;
70800;SDS011;59616;52.170;5.386;2023-05-10T06:02:19;54.65;;;17.17;;
70800;SDS011;59616;52.170;5.386;2023-05-10T06:04:47;58.47;;;17.98;;
70800;SDS011;59616;52.170;5.386;2023-05-10T06:07:14;58.15;;;17.05;;
70800;SDS011;59616;52.170;5.386;2023-05-10T06:09:41;51.45;;;17.05;;
70800;SDS011;59616;52.170;5.386;2023-05-10T06:12:08;59.08;;;17.45;;
70800;SDS011;59616;52.170;5.386;2023-05-10T06:14:36;56.80;;;18.50;;
70800;SDS011;59616;52.170;5.386;2023-05-10T06:17:03;61.55;;;18.65;;
70800;SDS011;59616;52.170;5.386;2023-05-10T06:19:31;56.65;;;17.40;;
70800;SDS011;59616;52.170;5.386;2023-05-10T06:21:58;53.10;;;15.40;;
70800;SDS011;59616;52.170;5.386;2023-05-10T06:24:25;51.97;;;15.80;;
70800;SDS011;59616;52.170;5.386;2023-05-10T06:26:53;48.38;;;15.52;;
70800;SDS011;59616;52.170;5.386;2023-05-10T06:29:20;40.67;;;13.77;;
70800;SDS011;59616;52.170;5.386;2023-05-10T06:31:47;39.42;;;13.50;;
70800;SDS011;59616;52.170;5.386;2023-05-10T06:34:14;41.90;;;13.45;;
70800;SDS011;59616;52.170;5.386;2023-05-10T06:36:42;36.17;;;11.98;;
70800;SDS011;59616;52.170;5.386;2023-05-10T06:39:09;42.72;;;12.32;;
70800;SDS011;59616;52.170;5.386;2023-05-10T06:41:38;35.15;;;12.45;;
70800;SDS011;59616;52.170;5.386;2023-05-10T06:44:05;37.70;;;11.77;;
70800;SDS011;59616;52.170;5.386;2023-05-10T06:46:32;33.13;;;11.45;;
70800;SDS011;59616;52.170;5.386;2023-05-10T06:48:59;33.25;;;10.55;;
70800;SDS011;59616;52.170;5.386;2023-05-10T06:51:26;34.10;;;11.23;;
70800;SDS011;59616;52.170;5.386;2023-05-10T06:53:54;30.52;;;9.80;;
70800;SDS011;59616;52.170;5.386;2023-05-10T06:56:21;26.17;;;8.77;;
70800;SDS011;59616;52.170;5.386;2023-05-10T06:58:48;24.02;;;9.10;;
70800;SDS011;59616;52.170;5.386;2023-05-10T07:01:15;25.38;;;8.60;;
70800;SDS011;59616;52.170;5.386;2023-05-10T07:03:42;24.75;;;8.23;;
70800;SDS011;59616;52.170;5.386;2023-05-10T07:06:10;25.88;;;8.50;;
70800;SDS011;59616;52.170;5.386;2023-05-10T07:08:50;22.33;;;8.18;;
70800;SDS011;59616;52.170;5.386;2023-05-10T07:11:18;23.85;;;7.85;;
70800;SDS011;59616;52.170;5.386;2023-05-10T07:13:45;19.38;;;7.53;;
70800;SDS011;59616;52.170;5.386;2023-05-10T07:16:12;21.70;;;7.25;;
70800;SDS011;59616;52.170;5.386;2023-05-10T07:18:39;21.30;;;6.68;;
70800;SDS011;59616;52.170;5.386;2023-05-10T07:21:07;21.52;;;6.85;;
70800;SDS011;59616;52.170;5.386;2023-05-10T07:23:34;20.52;;;6.60;;
70800;SDS011;59616;52.170;5.386;2023-05-10T07:26:02;21.30;;;7.55;;
70800;SDS011;59616;52.170;5.386;2023-05-10T07:28:29;21.50;;;7.32;;
70800;SDS011;59616;52.170;5.386;2023-05-10T07:30:56;21.50;;;6.85;;
70800;SDS011;59616;52.170;5.386;2023-05-10T07:33:23;22.08;;;8.15;;
70800;SDS011;59616;52.170;5.386;2023-05-10T07:35:50;23.38;;;7.72;;
70800;SDS011;59616;52.170;5.386;2023-05-10T07:38:18;25.98;;;8.43;;
70800;SDS011;59616;52.170;5.386;2023-05-10T07:40:45;22.98;;;8.27;;
70800;SDS011;59616;52.170;5.386;2023-05-10T07:43:12;26.58;;;8.45;;
70800;SDS011;59616;52.170;5.386;2023-05-10T07:45:39;24.98;;;9.23;;
70800;SDS011;59616;52.170;5.386;2023-05-10T07:48:06;23.35;;;8.40;;
70800;SDS011;59616;52.170;5.386;2023-05-10T07:50:33;24.35;;;8.23;;
70800;SDS011;59616;52.170;5.386;2023-05-10T07:53:00;22.27;;;7.55;;
70800;SDS011;59616;52.170;5.386;2023-05-10T07:55:28;19.45;;;7.72;;
70800;SDS011;59616;52.170;5.386;2023-05-10T07:57:55;21.98;;;7.28;;
70800;SDS011;59616;52.170;5.386;2023-05-10T08:00:22;17.85;;;6.68;;
70800;SDS011;59616;52.170;5.386;2023-05-10T08:02:50;18.42;;;6.82;;
70800;SDS011;59616;52.170;5.386;2023-05-10T08:05:17;17.63;;;6.93;;
70800;SDS011;59616;52.170;5.386;2023-05-10T08:07:44;18.42;;;7.00;;
70800;SDS011;59616;52.170;5.386;2023-05-10T08:10:12;21.95;;;7.53;;
70800;SDS011;59616;52.170;5.386;2023-05-10T08:12:39;20.50;;;7.20;;
70800;SDS011;59616;52.170;5.386;2023-05-10T08:15:06;20.73;;;7.30;;
70800;SDS011;59616;52.170;5.386;2023-05-10T08:17:33;20.08;;;7.60;;
70800;SDS011;59616;52.170;5.386;2023-05-10T08:20:01;20.85;;;7.70;;
70800;SDS011;59616;52.170;5.386;2023-05-10T08:22:28;23.67;;;7.97;;
70800;SDS011;59616;52.170;5.386;2023-05-10T08:24:55;20.90;;;7.80;;
70800;SDS011;59616;52.170;5.386;2023-05-10T08:27:22;23.73;;;8.13;;
70800;SDS011;59616;52.170;5.386;2023-05-10T08:29:49;20.17;;;7.35;;
70800;SDS011;59616;52.170;5.386;2023-05-10T08:32:17;21.25;;;8.15;;
70800;SDS011;59616;52.170;5.386;2023-05-10T08:34:44;21.67;;;9.10;;
70800;SDS011;59616;52.170;5.386;2023-05-10T08:37:11;22.20;;;8.55;;
70800;SDS011;59616;52.170;5.386;2023-05-10T08:39:39;21.65;;;8.60;;
70800;SDS011;59616;52.170;5.386;2023-05-10T08:42:07;22.65;;;8.55;;
70800;SDS011;59616;52.170;5.386;2023-05-10T08:44:35;22.27;;;8.30;;
70800;SDS011;59616;52.170;5.386;2023-05-10T08:47:04;21.63;;;8.90;;
70800;SDS011;59616;52.170;5.386;2023-05-10T08:49:33;24.00;;;9.50;;
70800;SDS011;59616;52.170;5.386;2023-05-10T08:52:04;23.42;;;9.65;;
70800;SDS011;59616;52.170;5.386;2023-05-10T08:54:33;23.50;;;8.95;;
70800;SDS011;59616;52.170;5.386;2023-05-10T08:57:00;20.05;;;8.63;;
70800;SDS011;59616;52.170;5.386;2023-05-10T08:59:28;20.48;;;8.60;;
70800;SDS011;59616;52.170;5.386;2023-05-10T09:01:55;18.95;;;7.50;;
70800;SDS011;59616;52.170;5.386;2023-05-10T09:04:24;19.38;;;7.65;;
70800;SDS011;59616;52.170;5.386;2023-05-10T09:06:52;19.13;;;7.38;;
70800;SDS011;59616;52.170;5.386;2023-05-10T09:09:19;14.70;;;5.75;;
70800;SDS011;59616;52.170;5.386;2023-05-10T09:11:47;14.98;;;6.63;;
70800;SDS011;59616;52.170;5.386;2023-05-10T09:14:14;13.30;;;5.28;;
70800;SDS011;59616;52.170;5.386;2023-05-10T09:16:41;13.88;;;5.38;;
70800;SDS011;59616;52.170;5.386;2023-05-10T09:19:09;13.98;;;4.88;;
70800;SDS011;59616;52.170;5.386;2023-05-10T09:21:37;12.18;;;3.95;;
70800;SDS011;59616;52.170;5.386;2023-05-10T09:24:05;11.35;;;4.28;;
70800;SDS011;59616;52.170;5.386;2023-05-10T09:26:32;13.45;;;4.30;;
70800;SDS011;59616;52.170;5.386;2023-05-10T09:28:59;12.73;;;4.82;;
70800;SDS011;59616;52.170;5.386;2023-05-10T09:31:42;12.32;;;4.40;;
70800;SDS011;59616;52.170;5.386;2023-05-10T09:34:10;10.50;;;3.90;;
70800;SDS011;59616;52.170;5.386;2023-05-10T09:36:49;9.10;;;3.40;;
70800;SDS011;59616;52.170;5.386;2023-05-10T09:39:16;8.85;;;2.83;;
70800;SDS011;59616;52.170;5.386;2023-05-10T09:41:44;11.40;;;4.00;;
70800;SDS011;59616;52.170;5.386;2023-05-10T09:44:11;9.90;;;3.90;;
70800;SDS011;59616;52.170;5.386;2023-05-10T09:46:38;10.05;;;3.35;;
70800;SDS011;59616;52.170;5.386;2023-05-10T09:49:05;10.55;;;3.78;;
70800;SDS011;59616;52.170;5.386;2023-05-10T09:51:33;11.88;;;3.88;;
70800;SDS011;59616;52.170;5.386;2023-05-10T09:54:09;12.23;;;4.45;;
70800;SDS011;59616;52.170;5.386;2023-05-10T09:56:36;11.52;;;3.75;;
70800;SDS011;59616;52.170;5.386;2023-05-10T09:59:06;11.40;;;4.13;;
70800;SDS011;59616;52.170;5.386;2023-05-10T10:01:34;10.23;;;4.00;;
70800;SDS011;59616;52.170;5.386;2023-05-10T10:04:05;11.57;;;3.83;;
70800;SDS011;59616;52.170;5.386;2023-05-10T10:06:36;11.27;;;4.00;;
70800;SDS011;59616;52.170;5.386;2023-05-10T10:09:04;10.75;;;4.43;;
70800;SDS011;59616;52.170;5.386;2023-05-10T10:11:31;11.55;;;4.32;;
70800;SDS011;59616;52.170;5.386;2023-05-10T10:13:59;11.32;;;4.10;;
70800;SDS011;59616;52.170;5.386;2023-05-10T10:16:27;14.40;;;4.50;;
70800;SDS011;59616;52.170;5.386;2023-05-10T10:18:54;10.85;;;4.45;;
70800;SDS011;59616;52.170;5.386;2023-05-10T10:21:22;13.13;;;4.43;;
70800;SDS011;59616;52.170;5.386;2023-05-10T10:23:49;11.75;;;4.72;;
70800;SDS011;59616;52.170;5.386;2023-05-10T10:26:17;14.18;;;4.68;;
70800;SDS011;59616;52.170;5.386;2023-05-10T10:32:01;14.05;;;4.95;;
70800;SDS011;59616;52.170;5.386;2023-05-10T10:34:25;12.02;;;4.80;;
70800;SDS011;59616;52.170;5.386;2023-05-10T10:36:56;14.13;;;5.47;;
70800;SDS011;59616;52.170;5.386;2023-05-10T10:39:24;15.52;;;5.38;;
70800;SDS011;59616;52.170;5.386;2023-05-10T10:47:02;11.45;;;4.63;;
70800;SDS011;59616;52.170;5.386;2023-05-10T10:49:32;12.27;;;4.57;;
70800;SDS011;59616;52.170;5.386;2023-05-10T10:57:28;11.57;;;4.38;;
70800;SDS011;59616;52.170;5.386;2023-05-10T11:02:53;12.30;;;4.45;;
70800;SDS011;59616;52.170;5.386;2023-05-10T11:07:55;12.52;;;4.53;;
70800;SDS011;59616;52.170;5.386;2023-05-10T11:10:22;14.40;;;4.82;;
70800;SDS011;59616;52.170;5.386;2023-05-10T11:12:51;11.85;;;4.47;;
70800;SDS011;59616;52.170;5.386;2023-05-10T11:15:19;12.43;;;4.35;;
70800;SDS011;59616;52.170;5.386;2023-05-10T11:17:47;10.70;;;4.00;;
70800;SDS011;59616;52.170;5.386;2023-05-10T11:20:18;24.63;;;7.03;;
70800;SDS011;59616;52.170;5.386;2023-05-10T11:22:54;14.07;;;4.57;;
70800;SDS011;59616;52.170;5.386;2023-05-10T11:25:27;12.70;;;4.35;;
70800;SDS011;59616;52.170;5.386;2023-05-10T11:27:54;12.30;;;4.10;;
70800;SDS011;59616;52.170;5.386;2023-05-10T11:30:22;9.52;;;3.60;;
70800;SDS011;59616;52.170;5.386;2023-05-10T11:32:50;13.20;;;4.47;;
70800;SDS011;59616;52.170;5.386;2023-05-10T11:35:17;11.13;;;3.92;;
70800;SDS011;59616;52.170;5.386;2023-05-10T11:37:44;11.68;;;3.60;;
70800;SDS011;59616;52.170;5.386;2023-05-10T11:40:14;11.30;;;3.92;;
70800;SDS011;59616;52.170;5.386;2023-05-10T11:42:42;11.75;;;4.35;;
70800;SDS011;59616;52.170;5.386;2023-05-10T11:45:09;8.43;;;3.15;;
70800;SDS011;59616;52.170;5.386;2023-05-10T11:47:36;9.35;;;3.10;;
70800;SDS011;59616;52.170;5.386;2023-05-10T11:50:07;9.40;;;3.38;;
70800;SDS011;59616;52.170;5.386;2023-05-10T11:52:35;9.13;;;2.90;;
70800;SDS011;59616;52.170;5.386;2023-05-10T11:55:03;10.18;;;3.00;;
70800;SDS011;59616;52.170;5.386;2023-05-10T11:57:31;9.02;;;3.15;;
70800;SDS011;59616;52.170;5.386;2023-05-10T11:59:58;10.25;;;3.00;;
70800;SDS011;59616;52.170;5.386;2023-05-10T12:02:25;8.98;;;3.38;;
70800;SDS011;59616;52.170;5.386;2023-05-10T12:04:53;10.25;;;3.15;;
70800;SDS011;59616;52.170;5.386;2023-05-10T12:07:21;9.82;;;3.05;;
70800;SDS011;59616;52.170;5.386;2023-05-10T12:10:08;10.05;;;3.00;;
70800;SDS011;59616;52.170;5.386;2023-05-10T12:12:39;11.30;;;3.17;;
70800;SDS011;59616;52.170;5.386;2023-05-10T12:15:18;8.30;;;2.85;;
70800;SDS011;59616;52.170;5.386;2023-05-10T12:17:46;11.35;;;3.22;;
70800;SDS011;59616;52.170;5.386;2023-05-10T12:20:17;10.23;;;3.35;;
70800;SDS011;59616;52.170;5.386;2023-05-10T12:22:54;8.75;;;3.10;;
70800;SDS011;59616;52.170;5.386;2023-05-10T12:25:29;8.02;;;3.28;;
70800;SDS011;59616;52.170;5.386;2023-05-10T12:27:57;10.02;;;3.10;;
70800;SDS011;59616;52.170;5.386;2023-05-10T12:30:27;8.95;;;3.22;;
70800;SDS011;59616;52.170;5.386;2023-05-10T12:33:01;8.18;;;2.90;;
70800;SDS011;59616;52.170;5.386;2023-05-10T12:35:30;8.43;;;3.00;;
70800;SDS011;59616;52.170;5.386;2023-05-10T12:37:57;7.97;;;2.95;;
70800;SDS011;59616;52.170;5.386;2023-05-10T12:40:24;7.75;;;2.83;;
70800;SDS011;59616;52.170;5.386;2023-05-10T12:42:52;9.95;;;2.80;;
70800;SDS011;59616;52.170;5.386;2023-05-10T12:45:19;8.32;;;2.90;;
70800;SDS011;59616;52.170;5.386;2023-05-10T12:47:46;8.50;;;2.63;;
70800;SDS011;59616;52.170;5.386;2023-05-10T12:50:13;9.30;;;2.60;;
70800;SDS011;59616;52.170;5.386;2023-05-10T12:52:41;7.13;;;2.30;;
70800;SDS011;59616;52.170;5.386;2023-05-10T12:55:09;5.75;;;2.25;;
70800;SDS011;59616;52.170;5.386;2023-05-10T12:57:36;8.20;;;2.70;;
70800;SDS011;59616;52.170;5.386;2023-05-10T13:00:03;7.22;;;2.53;;
70800;SDS011;59616;52.170;5.386;2023-05-10T13:02:31;7.28;;;2.50;;
70800;SDS011;59616;52.170;5.386;2023-05-10T13:04:58;7.50;;;2.05;;
70800;SDS011;59616;52.170;5.386;2023-05-10T13:07:26;6.03;;;2.20;;
70800;SDS011;59616;52.170;5.386;2023-05-10T13:09:53;6.38;;;2.17;;
70800;SDS011;59616;52.170;5.386;2023-05-10T13:12:20;7.63;;;2.30;;
70800;SDS011;59616;52.170;5.386;2023-05-10T13:14:47;7.72;;;2.17;;
70800;SDS011;59616;52.170;5.386;2023-05-10T13:17:14;6.55;;;2.03;;
70800;SDS011;59616;52.170;5.386;2023-05-10T13:19:41;6.55;;;2.15;;
70800;SDS011;59616;52.170;5.386;2023-05-10T13:22:08;7.03;;;2.38;;
70800;SDS011;59616;52.170;5.386;2023-05-10T13:24:36;11.35;;;4.20;;
70800;SDS011;59616;52.170;5.386;2023-05-10T13:27:03;12.50;;;4.38;;
70800;SDS011;59616;52.170;5.386;2023-05-10T13:29:30;14.55;;;4.93;;
70800;SDS011;59616;52.170;5.386;2023-05-10T13:31:58;14.13;;;4.60;;
70800;SDS011;59616;52.170;5.386;2023-05-10T13:34:25;12.18;;;4.22;;
70800;SDS011;59616;52.170;5.386;2023-05-10T13:36:53;13.40;;;3.95;;
70800;SDS011;59616;52.170;5.386;2023-05-10T13:39:22;12.55;;;3.95;;
70800;SDS011;59616;52.170;5.386;2023-05-10T13:41:49;13.18;;;4.28;;
70800;SDS011;59616;52.170;5.386;2023-05-10T13:44:17;14.32;;;4.75;;
70800;SDS011;59616;52.170;5.386;2023-05-10T13:46:44;15.02;;;4.72;;
70800;SDS011;59616;52.170;5.386;2023-05-10T13:49:12;13.05;;;4.45;;
70800;SDS011;59616;52.170;5.386;2023-05-10T13:51:39;15.50;;;4.88;;
70800;SDS011;59616;52.170;5.386;2023-05-10T13:54:06;15.45;;;5.35;;
70800;SDS011;59616;52.170;5.386;2023-05-10T13:56:34;14.48;;;5.10;;
70800;SDS011;59616;52.170;5.386;2023-05-10T13:59:01;15.13;;;5.15;;
70800;SDS011;59616;52.170;5.386;2023-05-10T14:01:28;13.55;;;4.85;;
70800;SDS011;59616;52.170;5.386;2023-05-10T14:03:55;13.95;;;5.05;;
70800;SDS011;59616;52.170;5.386;2023-05-10T14:06:22;13.43;;;4.70;;
70800;SDS011;59616;52.170;5.386;2023-05-10T14:08:50;15.70;;;4.88;;
70800;SDS011;59616;52.170;5.386;2023-05-10T14:11:17;14.23;;;5.43;;
70800;SDS011;59616;52.170;5.386;2023-05-10T14:13:44;13.90;;;5.15;;
70800;SDS011;59616;52.170;5.386;2023-05-10T14:16:11;15.38;;;5.15;;
70800;SDS011;59616;52.170;5.386;2023-05-10T14:18:40;13.65;;;4.80;;
70800;SDS011;59616;52.170;5.386;2023-05-10T14:21:08;14.98;;;5.18;;
70800;SDS011;59616;52.170;5.386;2023-05-10T14:23:35;15.30;;;5.20;;
70800;SDS011;59616;52.170;5.386;2023-05-10T14:26:02;13.75;;;5.15;;
70800;SDS011;59616;52.170;5.386;2023-05-10T14:28:29;15.60;;;5.10;;
70800;SDS011;59616;52.170;5.386;2023-05-10T14:30:56;16.98;;;5.38;;
70800;SDS011;59616;52.170;5.386;2023-05-10T14:33:24;13.65;;;4.80;;
70800;SDS011;59616;52.170;5.386;2023-05-10T14:35:51;13.57;;;4.80;;
70800;SDS011;59616;52.170;5.386;2023-05-10T14:38:18;15.65;;;5.28;;
70800;SDS011;59616;52.170;5.386;2023-05-10T14:40:45;14.27;;;4.95;;
70800;SDS011;59616;52.170;5.386;2023-05-10T14:43:13;12.48;;;4.20;;
70800;SDS011;59616;52.170;5.386;2023-05-10T14:45:40;13.75;;;4.68;;
70800;SDS011;59616;52.170;5.386;2023-05-10T14:48:07;14.18;;;4.90;;
70800;SDS011;59616;52.170;5.386;2023-05-10T14:50:38;14.77;;;4.45;;
70800;SDS011;59616;52.170;5.386;2023-05-10T14:53:05;14.95;;;4.78;;
70800;SDS011;59616;52.170;5.386;2023-05-10T14:55:32;16.20;;;4.97;;
70800;SDS011;59616;52.170;5.386;2023-05-10T14:58:01;17.00;;;5.72;;
70800;SDS011;59616;52.170;5.386;2023-05-10T15:00:29;13.13;;;4.80;;
70800;SDS011;59616;52.170;5.386;2023-05-10T15:02:56;14.48;;;5.20;;
70800;SDS011;59616;52.170;5.386;2023-05-10T15:05:24;15.35;;;5.30;;
70800;SDS011;59616;52.170;5.386;2023-05-10T15:07:52;15.02;;;5.28;;